Terminal Aerodrome Forecast
Issued by NWS

Home | Current Version | Previous Version | Text Only | Print | Product List | Glossary Off
Versions: 1 2 3 4 5 6 7 8 9 10 11 12 13 14 15 16 17 18 19 20

574
FTUS43 KTOP 192320
TAFMHK
TAF
KMHK 192320Z 2000/2024 01007KT P6SM SCT100
     FM200600 35007KT P6SM OVC015
     FM201000 36006KT P6SM OVC008
     FM201600 34006KT P6SM BKN015
     FM202000 35007KT P6SM BKN022=

USA.gov is the U.S. government's official web portal to all federal, state and local government web resources and services.